sensor_id;sensor_type;location;lat;lon;timestamp;P1;durP1;ratioP1;P2;durP2;ratioP2
29688;SDS011;16600;47.444;8.334;2024-02-04T00:02:00;6.00;;;5.40;;
29688;SDS011;16600;47.444;8.334;2024-02-04T00:04:28;6.07;;;5.47;;
29688;SDS011;16600;47.444;8.334;2024-02-04T00:06:55;8.63;;;5.95;;
29688;SDS011;16600;47.444;8.334;2024-02-04T00:09:24;5.22;;;4.72;;
29688;SDS011;16600;47.444;8.334;2024-02-04T00:11:50;5.97;;;5.32;;
29688;SDS011;16600;47.444;8.334;2024-02-04T00:14:16;4.88;;;4.43;;
29688;SDS011;16600;47.444;8.334;2024-02-04T00:16:46;9.50;;;4.88;;
29688;SDS011;16600;47.444;8.334;2024-02-04T00:19:12;5.10;;;4.55;;
29688;SDS011;16600;47.444;8.334;2024-02-04T00:21:38;5.07;;;4.25;;
29688;SDS011;16600;47.444;8.334;2024-02-04T00:24:04;3.92;;;3.50;;
29688;SDS011;16600;47.444;8.334;2024-02-04T00:26:31;4.28;;;3.88;;
29688;SDS011;16600;47.444;8.334;2024-02-04T00:28:57;3.92;;;3.53;;
29688;SDS011;16600;47.444;8.334;2024-02-04T00:31:23;3.70;;;3.40;;
29688;SDS011;16600;47.444;8.334;2024-02-04T00:33:49;3.03;;;2.83;;
29688;SDS011;16600;47.444;8.334;2024-02-04T00:36:15;2.92;;;2.72;;
29688;SDS011;16600;47.444;8.334;2024-02-04T00:38:43;3.22;;;3.03;;
29688;SDS011;16600;47.444;8.334;2024-02-04T00:43:35;3.10;;;2.80;;
29688;SDS011;16600;47.444;8.334;2024-02-04T00:46:01;2.60;;;2.40;;
29688;SDS011;16600;47.444;8.334;2024-02-04T00:48:30;2.92;;;2.72;;
29688;SDS011;16600;47.444;8.334;2024-02-04T00:50:56;2.95;;;2.75;;
29688;SDS011;16600;47.444;8.334;2024-02-04T00:53:23;3.30;;;3.00;;
29688;SDS011;16600;47.444;8.334;2024-02-04T00:55:49;2.67;;;2.47;;
29688;SDS011;16600;47.444;8.334;2024-02-04T00:58:15;3.30;;;3.00;;
29688;SDS011;16600;47.444;8.334;2024-02-04T01:03:06;3.13;;;2.63;;
29688;SDS011;16600;47.444;8.334;2024-02-04T01:05:33;4.13;;;2.75;;
29688;SDS011;16600;47.444;8.334;2024-02-04T01:08:00;2.80;;;2.58;;
29688;SDS011;16600;47.444;8.334;2024-02-04T01:10:27;2.83;;;2.63;;
29688;SDS011;16600;47.444;8.334;2024-02-04T01:12:53;3.53;;;3.22;;
29688;SDS011;16600;47.444;8.334;2024-02-04T01:15:19;2.53;;;2.33;;
29688;SDS011;16600;47.444;8.334;2024-02-04T01:17:46;2.88;;;2.67;;
29688;SDS011;16600;47.444;8.334;2024-02-04T01:20:12;3.47;;;2.47;;
29688;SDS011;16600;47.444;8.334;2024-02-04T01:22:41;3.25;;;2.95;;
29688;SDS011;16600;47.444;8.334;2024-02-04T01:25:11;3.22;;;2.80;;
29688;SDS011;16600;47.444;8.334;2024-02-04T01:27:43;2.88;;;2.67;;
29688;SDS011;16600;47.444;8.334;2024-02-04T01:30:09;4.18;;;2.83;;
29688;SDS011;16600;47.444;8.334;2024-02-04T01:32:38;3.05;;;2.83;;
29688;SDS011;16600;47.444;8.334;2024-02-04T01:35:06;2.63;;;2.42;;
29688;SDS011;16600;47.444;8.334;2024-02-04T01:37:38;3.58;;;2.92;;
29688;SDS011;16600;47.444;8.334;2024-02-04T01:40:04;2.97;;;2.60;;
29688;SDS011;16600;47.444;8.334;2024-02-04T01:42:34;2.80;;;2.60;;
29688;SDS011;16600;47.444;8.334;2024-02-04T01:45:00;3.10;;;2.80;;
29688;SDS011;16600;47.444;8.334;2024-02-04T01:47:27;3.28;;;2.97;;
29688;SDS011;16600;47.444;8.334;2024-02-04T01:49:53;2.50;;;2.30;;
29688;SDS011;16600;47.444;8.334;2024-02-04T01:52:19;2.78;;;2.58;;
29688;SDS011;16600;47.444;8.334;2024-02-04T01:54:46;5.93;;;2.55;;
29688;SDS011;16600;47.444;8.334;2024-02-04T01:57:15;3.28;;;2.97;;
29688;SDS011;16600;47.444;8.334;2024-02-04T01:59:45;2.65;;;2.45;;
29688;SDS011;16600;47.444;8.334;2024-02-04T02:02:11;3.00;;;2.65;;
29688;SDS011;16600;47.444;8.334;2024-02-04T02:04:38;3.20;;;2.90;;
29688;SDS011;16600;47.444;8.334;2024-02-04T02:07:07;3.70;;;2.92;;
29688;SDS011;16600;47.444;8.334;2024-02-04T02:09:34;2.60;;;2.40;;
29688;SDS011;16600;47.444;8.334;2024-02-04T02:12:01;3.50;;;2.65;;
29688;SDS011;16600;47.444;8.334;2024-02-04T02:14:32;2.47;;;2.25;;
29688;SDS011;16600;47.444;8.334;2024-02-04T02:17:02;3.00;;;2.75;;
29688;SDS011;16600;47.444;8.334;2024-02-04T02:19:46;3.35;;;2.58;;
29688;SDS011;16600;47.444;8.334;2024-02-04T02:22:24;3.70;;;2.60;;
29688;SDS011;16600;47.444;8.334;2024-02-04T02:24:56;2.80;;;2.60;;
29688;SDS011;16600;47.444;8.334;2024-02-04T02:27:22;3.97;;;3.58;;
29688;SDS011;16600;47.444;8.334;2024-02-04T02:29:49;3.40;;;3.10;;
29688;SDS011;16600;47.444;8.334;2024-02-04T02:32:16;2.80;;;2.60;;
29688;SDS011;16600;47.444;8.334;2024-02-04T02:34:42;3.00;;;2.70;;
29688;SDS011;16600;47.444;8.334;2024-02-04T02:39:39;3.20;;;2.42;;
29688;SDS011;16600;47.444;8.334;2024-02-04T02:42:06;2.83;;;2.55;;
29688;SDS011;16600;47.444;8.334;2024-02-04T02:44:33;3.55;;;2.88;;
29688;SDS011;16600;47.444;8.334;2024-02-04T02:47:03;2.38;;;2.20;;
29688;SDS011;16600;47.444;8.334;2024-02-04T02:49:31;3.75;;;2.60;;
29688;SDS011;16600;47.444;8.334;2024-02-04T02:51:59;2.60;;;2.38;;
29688;SDS011;16600;47.444;8.334;2024-02-04T02:54:26;2.63;;;2.42;;
29688;SDS011;16600;47.444;8.334;2024-02-04T02:56:52;2.30;;;2.10;;
29688;SDS011;16600;47.444;8.334;2024-02-04T02:59:19;2.75;;;2.38;;
29688;SDS011;16600;47.444;8.334;2024-02-04T03:03:05;2.53;;;2.33;;
29688;SDS011;16600;47.444;8.334;2024-02-04T03:05:31;3.10;;;2.33;;
29688;SDS011;16600;47.444;8.334;2024-02-04T03:07:58;2.90;;;2.70;;
29688;SDS011;16600;47.444;8.334;2024-02-04T03:10:25;2.63;;;2.42;;
29688;SDS011;16600;47.444;8.334;2024-02-04T03:12:51;2.50;;;2.30;;
29688;SDS011;16600;47.444;8.334;2024-02-04T03:15:21;2.55;;;2.30;;
29688;SDS011;16600;47.444;8.334;2024-02-04T03:17:47;2.78;;;2.58;;
29688;SDS011;16600;47.444;8.334;2024-02-04T03:20:14;3.10;;;2.83;;
29688;SDS011;16600;47.444;8.334;2024-02-04T03:22:43;3.50;;;3.00;;
29688;SDS011;16600;47.444;8.334;2024-02-04T03:25:10;4.38;;;3.90;;
29688;SDS011;16600;47.444;8.334;2024-02-04T03:27:42;6.60;;;4.22;;
29688;SDS011;16600;47.444;8.334;2024-02-04T03:30:14;4.88;;;4.30;;
29688;SDS011;16600;47.444;8.334;2024-02-04T03:32:40;4.78;;;4.30;;
29688;SDS011;16600;47.444;8.334;2024-02-04T03:35:06;4.43;;;4.03;;
29688;SDS011;16600;47.444;8.334;2024-02-04T03:37:32;3.72;;;3.42;;
29688;SDS011;16600;47.444;8.334;2024-02-04T03:42:24;3.70;;;3.40;;
29688;SDS011;16600;47.444;8.334;2024-02-04T03:44:50;4.10;;;3.72;;
29688;SDS011;16600;47.444;8.334;2024-02-04T03:47:17;4.03;;;3.63;;
29688;SDS011;16600;47.444;8.334;2024-02-04T03:49:45;6.00;;;3.00;;
29688;SDS011;16600;47.444;8.334;2024-02-04T03:52:12;3.45;;;3.15;;
29688;SDS011;16600;47.444;8.334;2024-02-04T03:54:38;3.60;;;3.05;;
29688;SDS011;16600;47.444;8.334;2024-02-04T03:57:04;3.05;;;2.85;;
29688;SDS011;16600;47.444;8.334;2024-02-04T03:59:31;3.78;;;3.20;;
29688;SDS011;16600;47.444;8.334;2024-02-04T04:02:00;4.22;;;3.42;;
29688;SDS011;16600;47.444;8.334;2024-02-04T04:04:26;3.47;;;3.17;;
29688;SDS011;16600;47.444;8.334;2024-02-04T04:06:52;3.42;;;3.03;;
29688;SDS011;16600;47.444;8.334;2024-02-04T04:09:30;3.38;;;3.00;;
29688;SDS011;16600;47.444;8.334;2024-02-04T04:11:56;3.47;;;3.17;;
29688;SDS011;16600;47.444;8.334;2024-02-04T04:14:24;4.10;;;3.13;;
29688;SDS011;16600;47.444;8.334;2024-02-04T04:16:50;3.40;;;3.10;;
29688;SDS011;16600;47.444;8.334;2024-02-04T04:19:20;6.97;;;3.72;;
29688;SDS011;16600;47.444;8.334;2024-02-04T04:21:46;3.47;;;3.17;;
29688;SDS011;16600;47.444;8.334;2024-02-04T04:24:12;3.38;;;3.08;;
29688;SDS011;16600;47.444;8.334;2024-02-04T04:26:41;3.67;;;3.38;;
29688;SDS011;16600;47.444;8.334;2024-02-04T04:29:07;3.30;;;3.03;;
29688;SDS011;16600;47.444;8.334;2024-02-04T04:31:34;4.07;;;3.45;;
29688;SDS011;16600;47.444;8.334;2024-02-04T04:34:00;4.05;;;3.65;;
29688;SDS011;16600;47.444;8.334;2024-02-04T04:36:26;3.65;;;3.33;;
29688;SDS011;16600;47.444;8.334;2024-02-04T04:38:55;5.18;;;4.07;;
29688;SDS011;16600;47.444;8.334;2024-02-04T04:41:21;5.85;;;4.43;;
29688;SDS011;16600;47.444;8.334;2024-02-04T04:43:50;4.97;;;4.32;;
29688;SDS011;16600;47.444;8.334;2024-02-04T04:46:17;5.47;;;4.97;;
29688;SDS011;16600;47.444;8.334;2024-02-04T04:48:46;6.07;;;5.47;;
29688;SDS011;16600;47.444;8.334;2024-02-04T04:51:12;6.13;;;5.53;;
29688;SDS011;16600;47.444;8.334;2024-02-04T04:53:39;7.22;;;6.13;;
29688;SDS011;16600;47.444;8.334;2024-02-04T04:56:05;5.95;;;5.45;;
29688;SDS011;16600;47.444;8.334;2024-02-04T04:58:32;8.80;;;7.32;;
29688;SDS011;16600;47.444;8.334;2024-02-04T05:03:03;7.33;;;5.93;;
29688;SDS011;16600;47.444;8.334;2024-02-04T05:05:30;6.15;;;5.55;;
29688;SDS011;16600;47.444;8.334;2024-02-04T05:07:56;5.93;;;5.32;;
29688;SDS011;16600;47.444;8.334;2024-02-04T05:10:22;6.30;;;5.68;;
29688;SDS011;16600;47.444;8.334;2024-02-04T05:12:48;7.30;;;5.85;;
29688;SDS011;16600;47.444;8.334;2024-02-04T05:15:14;10.98;;;6.10;;
29688;SDS011;16600;47.444;8.334;2024-02-04T05:17:40;7.15;;;5.90;;
29688;SDS011;16600;47.444;8.334;2024-02-04T05:20:06;6.95;;;6.30;;
29688;SDS011;16600;47.444;8.334;2024-02-04T05:22:33;9.60;;;7.07;;
29688;SDS011;16600;47.444;8.334;2024-02-04T05:24:59;8.65;;;7.75;;
29688;SDS011;16600;47.444;8.334;2024-02-04T05:27:25;10.85;;;8.82;;
29688;SDS011;16600;47.444;8.334;2024-02-04T05:29:51;11.82;;;10.32;;
29688;SDS011;16600;47.444;8.334;2024-02-04T05:32:18;13.38;;;11.95;;
29688;SDS011;16600;47.444;8.334;2024-02-04T05:34:44;14.98;;;10.65;;
29688;SDS011;16600;47.444;8.334;2024-02-04T05:37:10;22.40;;;12.10;;
29688;SDS011;16600;47.444;8.334;2024-02-04T05:39:36;16.35;;;13.48;;
29688;SDS011;16600;47.444;8.334;2024-02-04T05:42:05;15.80;;;12.65;;
29688;SDS011;16600;47.444;8.334;2024-02-04T05:44:32;20.42;;;14.30;;
29688;SDS011;16600;47.444;8.334;2024-02-04T05:46:58;15.13;;;13.43;;
29688;SDS011;16600;47.444;8.334;2024-02-04T05:49:30;20.05;;;14.73;;
29688;SDS011;16600;47.444;8.334;2024-02-04T05:51:56;15.13;;;13.00;;
29688;SDS011;16600;47.444;8.334;2024-02-04T05:54:22;16.17;;;14.05;;
29688;SDS011;16600;47.444;8.334;2024-02-04T05:56:52;16.75;;;12.73;;
29688;SDS011;16600;47.444;8.334;2024-02-04T05:59:18;15.35;;;12.25;;
29688;SDS011;16600;47.444;8.334;2024-02-04T06:01:45;15.85;;;12.60;;
29688;SDS011;16600;47.444;8.334;2024-02-04T06:04:11;17.40;;;13.55;;
29688;SDS011;16600;47.444;8.334;2024-02-04T06:06:37;13.13;;;11.45;;
29688;SDS011;16600;47.444;8.334;2024-02-04T06:09:11;20.80;;;11.27;;
29688;SDS011;16600;47.444;8.334;2024-02-04T06:11:44;12.77;;;10.73;;
29688;SDS011;16600;47.444;8.334;2024-02-04T06:14:10;12.13;;;10.80;;
29688;SDS011;16600;47.444;8.334;2024-02-04T06:16:38;12.27;;;10.88;;
29688;SDS011;16600;47.444;8.334;2024-02-04T06:19:05;11.90;;;10.65;;
29688;SDS011;16600;47.444;8.334;2024-02-04T06:21:34;14.43;;;11.25;;
29688;SDS011;16600;47.444;8.334;2024-02-04T06:24:00;12.15;;;10.05;;
29688;SDS011;16600;47.444;8.334;2024-02-04T06:28:52;12.07;;;10.77;;
29688;SDS011;16600;47.444;8.334;2024-02-04T06:31:19;11.30;;;9.55;;
29688;SDS011;16600;47.444;8.334;2024-02-04T06:33:45;11.38;;;9.95;;
29688;SDS011;16600;47.444;8.334;2024-02-04T06:36:11;10.77;;;9.70;;
29688;SDS011;16600;47.444;8.334;2024-02-04T06:38:40;11.40;;;9.35;;
29688;SDS011;16600;47.444;8.334;2024-02-04T06:41:06;12.73;;;9.48;;
29688;SDS011;16600;47.444;8.334;2024-02-04T06:43:33;11.13;;;9.15;;
29688;SDS011;16600;47.444;8.334;2024-02-04T06:45:59;12.82;;;10.27;;
29688;SDS011;16600;47.444;8.334;2024-02-04T06:48:25;12.13;;;8.70;;
29688;SDS011;16600;47.444;8.334;2024-02-04T06:50:54;8.98;;;8.05;;
29688;SDS011;16600;47.444;8.334;2024-02-04T06:53:23;9.80;;;8.23;;
29688;SDS011;16600;47.444;8.334;2024-02-04T06:55:49;12.13;;;9.27;;
29688;SDS011;16600;47.444;8.334;2024-02-04T06:58:18;11.95;;;7.95;;
29688;SDS011;16600;47.444;8.334;2024-02-04T07:03:02;9.83;;;7.87;;
29688;SDS011;16600;47.444;8.334;2024-02-04T07:05:28;10.80;;;7.68;;
29688;SDS011;16600;47.444;8.334;2024-02-04T07:07:58;14.23;;;10.88;;
29688;SDS011;16600;47.444;8.334;2024-02-04T07:10:27;12.35;;;11.05;;
29688;SDS011;16600;47.444;8.334;2024-02-04T07:12:53;11.38;;;10.05;;
29688;SDS011;16600;47.444;8.334;2024-02-04T07:15:22;10.82;;;9.40;;
29688;SDS011;16600;47.444;8.334;2024-02-04T07:17:51;13.02;;;9.20;;
29688;SDS011;16600;47.444;8.334;2024-02-04T07:20:30;9.25;;;8.35;;
29688;SDS011;16600;47.444;8.334;2024-02-04T07:22:57;11.80;;;8.65;;
29688;SDS011;16600;47.444;8.334;2024-02-04T07:25:23;12.05;;;10.00;;
29688;SDS011;16600;47.444;8.334;2024-02-04T07:27:49;11.45;;;9.80;;
29688;SDS011;16600;47.444;8.334;2024-02-04T07:30:18;10.98;;;9.23;;
29688;SDS011;16600;47.444;8.334;2024-02-04T07:32:44;11.88;;;9.40;;
29688;SDS011;16600;47.444;8.334;2024-02-04T07:35:10;11.25;;;9.32;;
29688;SDS011;16600;47.444;8.334;2024-02-04T07:37:36;10.55;;;8.95;;
29688;SDS011;16600;47.444;8.334;2024-02-04T07:40:03;12.52;;;10.38;;
29688;SDS011;16600;47.444;8.334;2024-02-04T07:42:30;11.95;;;9.90;;
29688;SDS011;16600;47.444;8.334;2024-02-04T07:44:57;13.30;;;11.07;;
29688;SDS011;16600;47.444;8.334;2024-02-04T07:47:23;20.35;;;11.93;;
29688;SDS011;16600;47.444;8.334;2024-02-04T07:49:52;13.77;;;12.27;;
29688;SDS011;16600;47.444;8.334;2024-02-04T07:52:18;12.68;;;10.50;;
29688;SDS011;16600;47.444;8.334;2024-02-04T07:54:46;13.32;;;10.73;;
29688;SDS011;16600;47.444;8.334;2024-02-04T07:57:16;16.05;;;11.88;;
29688;SDS011;16600;47.444;8.334;2024-02-04T07:59:45;13.98;;;11.40;;
29688;SDS011;16600;47.444;8.334;2024-02-04T08:02:14;15.63;;;11.20;;
29688;SDS011;16600;47.444;8.334;2024-02-04T08:04:40;18.30;;;11.70;;
29688;SDS011;16600;47.444;8.334;2024-02-04T08:07:09;16.25;;;10.68;;
29688;SDS011;16600;47.444;8.334;2024-02-04T08:09:36;16.75;;;12.30;;
29688;SDS011;16600;47.444;8.334;2024-02-04T08:12:02;12.90;;;9.93;;
29688;SDS011;16600;47.444;8.334;2024-02-04T08:14:29;17.27;;;12.32;;
29688;SDS011;16600;47.444;8.334;2024-02-04T08:19:20;12.93;;;10.18;;
29688;SDS011;16600;47.444;8.334;2024-02-04T08:21:46;14.75;;;11.88;;
29688;SDS011;16600;47.444;8.334;2024-02-04T08:24:15;11.73;;;10.52;;
29688;SDS011;16600;47.444;8.334;2024-02-04T08:26:42;11.13;;;9.88;;
29688;SDS011;16600;47.444;8.334;2024-02-04T08:29:09;13.00;;;10.65;;
29688;SDS011;16600;47.444;8.334;2024-02-04T08:31:38;13.27;;;10.80;;
29688;SDS011;16600;47.444;8.334;2024-02-04T08:34:04;12.15;;;9.88;;
29688;SDS011;16600;47.444;8.334;2024-02-04T08:36:31;13.43;;;11.57;;
29688;SDS011;16600;47.444;8.334;2024-02-04T08:39:07;14.47;;;11.20;;
29688;SDS011;16600;47.444;8.334;2024-02-04T08:41:33;13.10;;;11.73;;
29688;SDS011;16600;47.444;8.334;2024-02-04T08:43:59;14.55;;;10.73;;
29688;SDS011;16600;47.444;8.334;2024-02-04T08:46:28;13.02;;;11.65;;
29688;SDS011;16600;47.444;8.334;2024-02-04T08:48:58;12.82;;;11.45;;
29688;SDS011;16600;47.444;8.334;2024-02-04T08:51:24;13.00;;;10.90;;
29688;SDS011;16600;47.444;8.334;2024-02-04T08:53:53;13.40;;;10.80;;
29688;SDS011;16600;47.444;8.334;2024-02-04T08:58:53;11.13;;;9.93;;
29688;SDS011;16600;47.444;8.334;2024-02-04T09:03:02;11.07;;;9.87;;
29688;SDS011;16600;47.444;8.334;2024-02-04T09:05:28;11.93;;;10.57;;
29688;SDS011;16600;47.444;8.334;2024-02-04T09:07:54;15.82;;;9.23;;
29688;SDS011;16600;47.444;8.334;2024-02-04T09:10:21;15.27;;;10.15;;
29688;SDS011;16600;47.444;8.334;2024-02-04T09:12:50;11.82;;;9.73;;
29688;SDS011;16600;47.444;8.334;2024-02-04T09:15:16;12.60;;;10.60;;
29688;SDS011;16600;47.444;8.334;2024-02-04T09:17:45;10.85;;;9.75;;
29688;SDS011;16600;47.444;8.334;2024-02-04T09:20:11;12.60;;;9.43;;
29688;SDS011;16600;47.444;8.334;2024-02-04T09:22:38;12.75;;;9.88;;
29688;SDS011;16600;47.444;8.334;2024-02-04T09:25:07;15.75;;;11.30;;
29688;SDS011;16600;47.444;8.334;2024-02-04T09:27:33;12.13;;;9.98;;
29688;SDS011;16600;47.444;8.334;2024-02-04T09:30:00;10.68;;;9.45;;
29688;SDS011;16600;47.444;8.334;2024-02-04T09:32:26;12.05;;;9.52;;
29688;SDS011;16600;47.444;8.334;2024-02-04T09:34:55;11.65;;;8.05;;
29688;SDS011;16600;47.444;8.334;2024-02-04T09:37:22;10.38;;;8.15;;
29688;SDS011;16600;47.444;8.334;2024-02-04T09:39:48;10.00;;;8.88;;
29688;SDS011;16600;47.444;8.334;2024-02-04T09:42:20;9.70;;;8.70;;
29688;SDS011;16600;47.444;8.334;2024-02-04T09:44:50;8.20;;;7.35;;
29688;SDS011;16600;47.444;8.334;2024-02-04T09:47:16;9.25;;;7.00;;
29688;SDS011;16600;47.444;8.334;2024-02-04T09:49:45;8.52;;;7.65;;
29688;SDS011;16600;47.444;8.334;2024-02-04T09:52:12;8.82;;;7.15;;
29688;SDS011;16600;47.444;8.334;2024-02-04T09:54:41;10.02;;;7.78;;
29688;SDS011;16600;47.444;8.334;2024-02-04T09:57:09;8.65;;;7.25;;
29688;SDS011;16600;47.444;8.334;2024-02-04T09:59:35;9.85;;;7.97;;
29688;SDS011;16600;47.444;8.334;2024-02-04T10:02:03;8.45;;;6.60;;
29688;SDS011;16600;47.444;8.334;2024-02-04T10:04:29;15.20;;;8.00;;
29688;SDS011;16600;47.444;8.334;2024-02-04T10:06:55;7.50;;;6.75;;
29688;SDS011;16600;47.444;8.334;2024-02-04T10:09:24;8.35;;;7.40;;
29688;SDS011;16600;47.444;8.334;2024-02-04T10:11:50;7.43;;;6.13;;
29688;SDS011;16600;47.444;8.334;2024-02-04T10:14:16;6.25;;;5.35;;
29688;SDS011;16600;47.444;8.334;2024-02-04T10:16:45;5.93;;;5.32;;
29688;SDS011;16600;47.444;8.334;2024-02-04T10:19:12;6.45;;;5.85;;
29688;SDS011;16600;47.444;8.334;2024-02-04T10:21:41;5.95;;;5.13;;
29688;SDS011;16600;47.444;8.334;2024-02-04T10:24:07;6.82;;;5.18;;
29688;SDS011;16600;47.444;8.334;2024-02-04T10:26:33;6.47;;;5.05;;
29688;SDS011;16600;47.444;8.334;2024-02-04T10:29:05;5.32;;;4.50;;
29688;SDS011;16600;47.444;8.334;2024-02-04T10:31:33;6.72;;;5.10;;
29688;SDS011;16600;47.444;8.334;2024-02-04T10:33:59;5.05;;;4.47;;
29688;SDS011;16600;47.444;8.334;2024-02-04T10:36:29;8.35;;;4.60;;
29688;SDS011;16600;47.444;8.334;2024-02-04T10:38:56;5.45;;;4.55;;
29688;SDS011;16600;47.444;8.334;2024-02-04T10:41:22;5.57;;;5.05;;
29688;SDS011;16600;47.444;8.334;2024-02-04T10:43:50;9.13;;;6.22;;
29688;SDS011;16600;47.444;8.334;2024-02-04T10:46:19;6.50;;;5.78;;
29688;SDS011;16600;47.444;8.334;2024-02-04T10:48:54;8.40;;;5.38;;
29688;SDS011;16600;47.444;8.334;2024-02-04T10:51:23;6.55;;;5.53;;
29688;SDS011;16600;47.444;8.334;2024-02-04T10:53:53;6.90;;;5.47;;
29688;SDS011;16600;47.444;8.334;2024-02-04T10:56:29;6.30;;;4.35;;
29688;SDS011;16600;47.444;8.334;2024-02-04T10:58:56;5.32;;;4.80;;
29688;SDS011;16600;47.444;8.334;2024-02-04T11:03:02;5.63;;;5.03;;
29688;SDS011;16600;47.444;8.334;2024-02-04T11:05:30;5.88;;;5.13;;
29688;SDS011;16600;47.444;8.334;2024-02-04T11:07:57;5.70;;;5.18;;
29688;SDS011;16600;47.444;8.334;2024-02-04T11:10:32;7.25;;;4.97;;
29688;SDS011;16600;47.444;8.334;2024-02-04T11:13:02;5.80;;;5.00;;
29688;SDS011;16600;47.444;8.334;2024-02-04T11:15:30;6.18;;;5.15;;
29688;SDS011;16600;47.444;8.334;2024-02-04T11:23:39;8.88;;;5.80;;
29688;SDS011;16600;47.444;8.334;2024-02-04T11:26:18;6.80;;;4.68;;
29688;SDS011;16600;47.444;8.334;2024-02-04T11:28:45;8.48;;;6.07;;
29688;SDS011;16600;47.444;8.334;2024-02-04T11:31:15;6.30;;;5.28;;
29688;SDS011;16600;47.444;8.334;2024-02-04T11:33:49;6.05;;;5.45;;
29688;SDS011;16600;47.444;8.334;2024-02-04T11:36:18;6.40;;;5.00;;
29688;SDS011;16600;47.444;8.334;2024-02-04T11:38:50;6.68;;;5.45;;
29688;SDS011;16600;47.444;8.334;2024-02-04T11:41:22;19.20;;;5.10;;
29688;SDS011;16600;47.444;8.334;2024-02-04T11:43:55;7.80;;;6.03;;
29688;SDS011;16600;47.444;8.334;2024-02-04T11:46:22;8.30;;;5.80;;
29688;SDS011;16600;47.444;8.334;2024-02-04T11:48:52;7.45;;;5.60;;
29688;SDS011;16600;47.444;8.334;2024-02-04T11:51:27;8.77;;;5.65;;
29688;SDS011;16600;47.444;8.334;2024-02-04T11:53:56;7.63;;;5.82;;
29688;SDS011;16600;47.444;8.334;2024-02-04T11:56:23;10.93;;;5.45;;
29688;SDS011;16600;47.444;8.334;2024-02-04T11:58:50;10.18;;;5.75;;
29688;SDS011;16600;47.444;8.334;2024-02-04T12:01:21;6.13;;;5.22;;
29688;SDS011;16600;47.444;8.334;2024-02-04T12:03:53;5.53;;;4.97;;
29688;SDS011;16600;47.444;8.334;2024-02-04T12:06:20;5.90;;;5.30;;
29688;SDS011;16600;47.444;8.334;2024-02-04T12:08:50;7.53;;;6.30;;
29688;SDS011;16600;47.444;8.334;2024-02-04T12:11:19;5.63;;;5.07;;
29688;SDS011;16600;47.444;8.334;2024-02-04T12:13:46;6.03;;;5.43;;
29688;SDS011;16600;47.444;8.334;2024-02-04T12:16:16;9.45;;;6.10;;
29688;SDS011;16600;47.444;8.334;2024-02-04T12:18:51;7.85;;;5.32;;
29688;SDS011;16600;47.444;8.334;2024-02-04T12:21:17;7.15;;;5.72;;
29688;SDS011;16600;47.444;8.334;2024-02-04T12:23:47;5.35;;;4.82;;
29688;SDS011;16600;47.444;8.334;2024-02-04T12:26:16;6.47;;;5.57;;
29688;SDS011;16600;47.444;8.334;2024-02-04T12:28:45;5.43;;;4.93;;
29688;SDS011;16600;47.444;8.334;2024-02-04T12:31:18;5.63;;;4.63;;
29688;SDS011;16600;47.444;8.334;2024-02-04T12:33:54;6.20;;;5.22;;
29688;SDS011;16600;47.444;8.334;2024-02-04T12:36:25;9.27;;;4.75;;
29688;SDS011;16600;47.444;8.334;2024-02-04T12:38:54;5.05;;;4.55;;
29688;SDS011;16600;47.444;8.334;2024-02-04T12:41:24;5.07;;;4.55;;
29688;SDS011;16600;47.444;8.334;2024-02-04T12:43:53;7.95;;;4.65;;
29688;SDS011;16600;47.444;8.334;2024-02-04T12:46:22;5.95;;;4.55;;
29688;SDS011;16600;47.444;8.334;2024-02-04T12:48:55;8.20;;;4.55;;
29688;SDS011;16600;47.444;8.334;2024-02-04T12:51:24;5.65;;;4.90;;
29688;SDS011;16600;47.444;8.334;2024-02-04T12:54:12;6.57;;;4.15;;
29688;SDS011;16600;47.444;8.334;2024-02-04T12:56:41;6.32;;;4.53;;
29688;SDS011;16600;47.444;8.334;2024-02-04T12:59:08;6.38;;;4.35;;
29688;SDS011;16600;47.444;8.334;2024-02-04T13:03:05;4.93;;;4.43;;
29688;SDS011;16600;47.444;8.334;2024-02-04T13:05:34;5.82;;;4.85;;
29688;SDS011;16600;47.444;8.334;2024-02-04T13:08:03;7.13;;;4.90;;
29688;SDS011;16600;47.444;8.334;2024-02-04T13:10:34;4.63;;;4.13;;
29688;SDS011;16600;47.444;8.334;2024-02-04T13:13:04;9.93;;;4.28;;
29688;SDS011;16600;47.444;8.334;2024-02-04T13:15:39;6.05;;;3.88;;
29688;SDS011;16600;47.444;8.334;2024-02-04T13:18:09;7.95;;;4.70;;
29688;SDS011;16600;47.444;8.334;2024-02-04T13:20:37;5.68;;;3.35;;
29688;SDS011;16600;47.444;8.334;2024-02-04T13:23:06;3.95;;;3.20;;
29688;SDS011;16600;47.444;8.334;2024-02-04T13:25:32;3.20;;;2.70;;
29688;SDS011;16600;47.444;8.334;2024-02-04T13:27:58;4.50;;;2.63;;
29688;SDS011;16600;47.444;8.334;2024-02-04T13:30:24;4.57;;;2.72;;
29688;SDS011;16600;47.444;8.334;2024-02-04T13:32:51;3.55;;;2.80;;
29688;SDS011;16600;47.444;8.334;2024-02-04T13:35:20;10.98;;;3.10;;
29688;SDS011;16600;47.444;8.334;2024-02-04T13:37:47;3.22;;;2.85;;
29688;SDS011;16600;47.444;8.334;2024-02-04T13:40:21;4.72;;;2.80;;
29688;SDS011;16600;47.444;8.334;2024-02-04T13:42:47;3.72;;;2.97;;
29688;SDS011;16600;47.444;8.334;2024-02-04T13:45:17;3.67;;;3.30;;
29688;SDS011;16600;47.444;8.334;2024-02-04T13:47:47;5.38;;;3.13;;
29688;SDS011;16600;47.444;8.334;2024-02-04T13:50:16;3.85;;;3.22;;
29688;SDS011;16600;47.444;8.334;2024-02-04T13:52:45;4.30;;;2.97;;
29688;SDS011;16600;47.444;8.334;2024-02-04T13:55:14;3.28;;;2.95;;
29688;SDS011;16600;47.444;8.334;2024-02-04T13:57:40;4.82;;;3.03;;
29688;SDS011;16600;47.444;8.334;2024-02-04T14:00:07;3.58;;;2.80;;
29688;SDS011;16600;47.444;8.334;2024-02-04T14:02:33;7.95;;;3.42;;
29688;SDS011;16600;47.444;8.334;2024-02-04T14:05:00;3.90;;;3.03;;
29688;SDS011;16600;47.444;8.334;2024-02-04T14:07:32;7.65;;;3.33;;
29688;SDS011;16600;47.444;8.334;2024-02-04T14:09:59;4.00;;;3.63;;
29688;SDS011;16600;47.444;8.334;2024-02-04T14:12:25;3.83;;;3.00;;
29688;SDS011;16600;47.444;8.334;2024-02-04T14:14:51;3.75;;;3.42;;
29688;SDS011;16600;47.444;8.334;2024-02-04T14:17:21;5.78;;;3.33;;
29688;SDS011;16600;47.444;8.334;2024-02-04T14:19:50;5.88;;;4.43;;
29688;SDS011;16600;47.444;8.334;2024-02-04T14:22:19;3.75;;;3.35;;
29688;SDS011;16600;47.444;8.334;2024-02-04T14:24:48;4.90;;;3.53;;
29688;SDS011;16600;47.444;8.334;2024-02-04T14:27:15;5.38;;;4.32;;
29688;SDS011;16600;47.444;8.334;2024-02-04T14:29:41;6.25;;;3.22;;
29688;SDS011;16600;47.444;8.334;2024-02-04T14:32:07;7.30;;;2.80;;
29688;SDS011;16600;47.444;8.334;2024-02-04T14:34:34;4.07;;;3.30;;
29688;SDS011;16600;47.444;8.334;2024-02-04T14:37:06;3.90;;;3.17;;
29688;SDS011;16600;47.444;8.334;2024-02-04T14:39:35;7.85;;;3.45;;
29688;SDS011;16600;47.444;8.334;2024-02-04T14:42:01;4.30;;;3.13;;
29688;SDS011;16600;47.444;8.334;2024-02-04T14:44:27;3.83;;;3.40;;
29688;SDS011;16600;47.444;8.334;2024-02-04T14:46:55;6.30;;;5.13;;
29688;SDS011;16600;47.444;8.334;2024-02-04T14:49:21;3.50;;;3.17;;
29688;SDS011;16600;47.444;8.334;2024-02-04T14:51:50;5.88;;;3.28;;
29688;SDS011;16600;47.444;8.334;2024-02-04T14:54:19;4.30;;;3.55;;
29688;SDS011;16600;47.444;8.334;2024-02-04T14:56:45;2.47;;;2.28;;
29688;SDS011;16600;47.444;8.334;2024-02-04T14:59:14;4.47;;;3.20;;
29688;SDS011;16600;47.444;8.334;2024-02-04T15:03:01;3.23;;;2.77;;
29688;SDS011;16600;47.444;8.334;2024-02-04T15:05:27;3.50;;;3.10;;
29688;SDS011;16600;47.444;8.334;2024-02-04T15:08:02;2.83;;;2.13;;
29688;SDS011;16600;47.444;8.334;2024-02-04T15:10:31;4.95;;;3.08;;
29688;SDS011;16600;47.444;8.334;2024-02-04T15:13:00;2.38;;;1.35;;
29688;SDS011;16600;47.444;8.334;2024-02-04T15:15:30;2.22;;;1.63;;
29688;SDS011;16600;47.444;8.334;2024-02-04T15:17:59;5.35;;;2.63;;
29688;SDS011;16600;47.444;8.334;2024-02-04T15:20:28;2.40;;;2.20;;